Time;durP1;ratioP1;P1;durP2;ratioP2;P2;SDS_P1;SDS_P2;PMS_P1;PMS_P2;Temp;Humidity;BMP_temperature;BMP_pressure;BME280_temperature;BME280_humidity;BME280_pressure;Samples;Min_cycle;Max_cycle;Signal;HPM_P1;HPM_P2
2022/02/25 00:00:41;;;;;;;;;19.50;16.00;;;;;;;;5030323;28;51164;-47
2022/02/25 00:03:28;;;;;;;;;20.75;17.75;;;;;;;;5041069;28;51042;-46
2022/02/25 00:06:13;;;;;;;;;23.50;19.00;;;;;;;;5043337;28;51172;-47
2022/02/25 00:09:01;;;;;;;;;18.50;16.75;;;;;;;;5042977;28;51519;-47
2022/02/25 00:11:47;;;;;;;;;23.50;18.50;;;;;;;;5022939;28;51179;-47
2022/02/25 00:14:33;;;;;;;;;24.75;19.00;;;;;;;;5046990;28;51159;-48
2022/02/25 00:17:17;;;;;;;;;24.25;17.75;;;;;;;;5040585;28;51203;-49
2022/02/25 00:20:05;;;;;;;;;23.75;18.50;;;;;;;;5039492;28;51298;-45
2022/02/25 00:22:57;;;;;;;;;22.75;18.75;;;;;;;;5039142;28;51641;-49
2022/02/25 00:25:53;;;;;;;;;22.00;17.50;;;;;;;;5032970;28;51612;-43
2022/02/25 00:28:38;;;;;;;;;25.25;18.25;;;;;;;;5046057;28;51152;-47
2022/02/25 00:31:33;;;;;;;;;22.50;18.00;;;;;;;;5046052;28;51124;-48
2022/02/25 00:34:18;;;;;;;;;19.00;18.75;;;;;;;;5041015;28;51029;-47
2022/02/25 00:37:07;;;;;;;;;23.50;18.25;;;;;;;;5039492;28;51057;-49
2022/02/25 00:39:52;;;;;;;;;19.00;14.50;;;;;;;;5038320;28;51487;-49
2022/02/25 00:42:36;;;;;;;;;27.50;20.75;;;;;;;;5038522;28;51021;-47
2022/02/25 00:45:21;;;;;;;;;22.75;19.00;;;;;;;;5040623;28;51183;-45
2022/02/25 00:48:06;;;;;;;;;22.50;18.25;;;;;;;;5041517;28;51527;-48
2022/02/25 00:50:52;;;;;;;;;15.75;15.75;;;;;;;;5049598;28;51113;-47
2022/02/25 00:53:37;;;;;;;;;20.75;18.75;;;;;;;;5042668;28;51529;-46
2022/02/25 00:56:34;;;;;;;;;21.25;17.25;;;;;;;;5045634;28;51066;-44
2022/02/25 00:59:18;;;;;;;;;25.00;16.00;;;;;;;;5047350;28;51376;-47
2022/02/25 01:02:07;;;;;;;;;24.25;17.75;;;;;;;;5042737;28;51451;-48
2022/02/25 01:05:03;;;;;;;;;23.25;18.50;;;;;;;;5045720;28;51681;-45
2022/02/25 01:07:47;;;;;;;;;26.25;18.75;;;;;;;;5041962;28;51448;-47
2022/02/25 01:10:34;;;;;;;;;29.25;20.00;;;;;;;;5045249;28;51197;-49
2022/02/25 01:13:21;;;;;;;;;21.25;17.50;;;;;;;;5043988;28;51317;-49
2022/02/25 01:16:08;;;;;;;;;24.75;18.50;;;;;;;;5045281;28;51143;-47
2022/02/25 01:18:54;;;;;;;;;20.00;17.00;;;;;;;;5046278;28;51427;-45
2022/02/25 01:21:39;;;;;;;;;21.00;15.25;;;;;;;;5041632;28;51185;-45
2022/02/25 01:24:25;;;;;;;;;25.25;18.00;;;;;;;;5044070;28;51566;-46
2022/02/25 01:27:14;;;;;;;;;22.75;17.75;;;;;;;;5044164;28;51208;-48
2022/02/25 01:29:59;;;;;;;;;22.00;17.00;;;;;;;;5047501;28;51493;-48
2022/02/25 01:32:45;;;;;;;;;22.75;19.00;;;;;;;;5041205;28;51110;-45
2022/02/25 01:35:40;;;;;;;;;21.00;17.25;;;;;;;;5052823;28;51174;-45
2022/02/25 01:38:31;;;;;;;;;29.00;18.75;;;;;;;;5041355;28;51209;-47
2022/02/25 01:41:27;;;;;;;;;23.00;18.00;;;;;;;;5042741;28;51063;-51
2022/02/25 01:44:16;;;;;;;;;28.25;17.50;;;;;;;;5042306;28;51425;-43
2022/02/25 01:47:08;;;;;;;;;20.75;18.00;;;;;;;;5051769;28;51111;-49
2022/02/25 01:49:58;;;;;;;;;22.00;17.00;;;;;;;;5044413;28;51146;-45
2022/02/25 01:53:07;;;;;;;;;19.00;16.25;;;;;;;;5042985;28;51167;-47
2022/02/25 01:56:07;;;;;;;;;19.50;18.50;;;;;;;;5054356;28;51522;-45
2022/02/25 01:58:52;;;;;;;;;22.75;19.00;;;;;;;;5043265;28;51060;-49
2022/02/25 02:01:37;;;;;;;;;19.75;17.00;;;;;;;;5041218;28;51037;-47
2022/02/25 02:04:21;;;;;;;;;22.25;18.00;;;;;;;;5039657;28;51465;-48
2022/02/25 02:07:08;;;;;;;;;23.50;17.00;;;;;;;;5047302;28;51071;-48
2022/02/25 02:09:54;;;;;;;;;19.75;18.00;;;;;;;;5043285;28;51155;-51
2022/02/25 02:12:42;;;;;;;;;24.75;17.00;;;;;;;;5044456;28;51158;-48
2022/02/25 02:15:34;;;;;;;;;22.75;18.25;;;;;;;;5047040;28;51098;-49
2022/02/25 02:18:38;;;;;;;;;29.50;22.25;;;;;;;;5040104;28;51073;-45
2022/02/25 02:21:23;;;;;;;;;25.25;18.00;;;;;;;;5041069;28;51183;-48
2022/02/25 02:24:08;;;;;;;;;22.75;16.75;;;;;;;;5042472;28;51122;-51
2022/02/25 02:26:53;;;;;;;;;24.00;17.75;;;;;;;;5041651;28;51231;-48
2022/02/25 02:29:37;;;;;;;;;24.75;17.75;;;;;;;;5045768;28;51488;-47
2022/02/25 02:32:22;;;;;;;;;22.25;19.00;;;;;;;;5041969;28;51199;-47
2022/02/25 02:35:15;;;;;;;;;21.50;17.25;;;;;;;;5047310;28;51061;-48
2022/02/25 02:38:11;;;;;;;;;19.00;17.50;;;;;;;;5040349;28;51195;-47
2022/02/25 02:41:07;;;;;;;;;22.50;20.75;;;;;;;;5039936;28;51195;-46
2022/02/25 02:44:01;;;;;;;;;23.75;16.25;;;;;;;;5041688;28;51147;-46
2022/02/25 02:46:45;;;;;;;;;21.00;18.25;;;;;;;;5041065;28;51424;-48
2022/02/25 02:49:31;;;;;;;;;19.25;16.25;;;;;;;;5041455;28;51175;-45
2022/02/25 02:52:17;;;;;;;;;22.50;18.50;;;;;;;;5041878;28;51140;-45
2022/02/25 02:55:03;;;;;;;;;22.75;16.50;;;;;;;;5040428;28;51427;-44
2022/02/25 02:57:47;;;;;;;;;19.25;17.00;;;;;;;;5052798;28;51247;-47
2022/02/25 03:00:31;;;;;;;;;21.00;18.50;;;;;;;;5056581;28;51171;-47
2022/02/25 03:03:20;;;;;;;;;24.25;20.50;;;;;;;;5044606;28;51170;-49
2022/02/25 03:06:05;;;;;;;;;24.50;19.75;;;;;;;;5044066;28;51365;-49
2022/02/25 03:08:49;;;;;;;;;20.75;17.50;;;;;;;;5040876;28;51080;-48
2022/02/25 03:11:35;;;;;;;;;22.50;17.25;;;;;;;;5049177;28;52415;-47
2022/02/25 03:14:22;;;;;;;;;20.75;18.00;;;;;;;;5039777;28;51104;-45
2022/02/25 03:17:07;;;;;;;;;24.00;19.00;;;;;;;;5039247;28;51175;-46
2022/02/25 03:20:05;;;;;;;;;20.75;16.00;;;;;;;;5039098;28;51085;-46
2022/02/25 03:22:55;;;;;;;;;20.25;17.50;;;;;;;;5040304;28;51072;-46
2022/02/25 03:26:00;;;;;;;;;19.75;16.50;;;;;;;;5034017;28;51202;-47
2022/02/25 03:28:57;;;;;;;;;23.25;20.75;;;;;;;;5043327;28;51069;-47
2022/02/25 03:31:44;;;;;;;;;29.75;20.50;;;;;;;;5051638;28;51467;-45
2022/02/25 03:34:42;;;;;;;;;22.00;19.75;;;;;;;;5039225;28;51282;-49
2022/02/25 03:37:29;;;;;;;;;22.00;19.50;;;;;;;;5051047;28;51478;-45
2022/02/25 03:40:16;;;;;;;;;27.00;19.50;;;;;;;;5039028;28;51085;-47
2022/02/25 03:43:15;;;;;;;;;28.25;20.75;;;;;;;;5041072;28;51202;-46
2022/02/25 03:46:01;;;;;;;;;24.00;20.75;;;;;;;;5046788;28;51620;-46
2022/02/25 03:48:47;;;;;;;;;26.25;21.25;;;;;;;;5040899;28;51395;-46
2022/02/25 03:51:34;;;;;;;;;20.75;17.50;;;;;;;;5046330;28;51079;-45
2022/02/25 03:54:31;;;;;;;;;20.50;19.50;;;;;;;;5038762;28;51104;-44
2022/02/25 03:57:16;;;;;;;;;30.25;23.00;;;;;;;;5052712;28;51652;-43
2022/02/25 04:00:04;;;;;;;;;27.50;22.25;;;;;;;;5049173;28;51172;-44
2022/02/25 04:02:53;;;;;;;;;29.25;23.25;;;;;;;;5038915;28;51199;-52
2022/02/25 04:05:37;;;;;;;;;28.00;24.25;;;;;;;;5039737;28;51084;-47
2022/02/25 04:08:37;;;;;;;;;27.00;21.75;;;;;;;;5055047;28;51059;-47
2022/02/25 04:11:21;;;;;;;;;24.25;21.50;;;;;;;;5044336;28;51610;-46
2022/02/25 04:14:12;;;;;;;;;26.50;22.25;;;;;;;;5040514;28;51231;-48
2022/02/25 04:16:57;;;;;;;;;26.25;24.75;;;;;;;;5040806;28;51198;-47
2022/02/25 04:19:43;;;;;;;;;27.50;21.50;;;;;;;;5040837;28;51187;-45
2022/02/25 04:22:53;;;;;;;;;28.50;22.75;;;;;;;;5053487;28;51372;-47
2022/02/25 04:25:37;;;;;;;;;27.50;23.00;;;;;;;;5044880;28;51227;-47
2022/02/25 04:28:40;;;;;;;;;29.00;23.50;;;;;;;;5053638;28;51599;-49
2022/02/25 04:31:31;;;;;;;;;28.25;26.75;;;;;;;;5046215;28;51170;-46
2022/02/25 04:34:31;;;;;;;;;33.25;27.00;;;;;;;;5044107;28;51186;-47
2022/02/25 04:37:17;;;;;;;;;28.50;26.25;;;;;;;;5057966;28;51534;-45
2022/02/25 04:40:05;;;;;;;;;35.25;26.25;;;;;;;;5050390;28;51417;-47
2022/02/25 04:42:50;;;;;;;;;37.00;26.00;;;;;;;;5049251;28;51277;-47
2022/02/25 04:45:36;;;;;;;;;33.25;27.50;;;;;;;;5033347;28;51101;-51
2022/02/25 04:48:22;;;;;;;;;33.00;28.75;;;;;;;;5047417;28;51407;-48
2022/02/25 04:51:12;;;;;;;;;34.00;29.50;;;;;;;;5053083;28;51198;-50
2022/02/25 04:53:59;;;;;;;;;38.75;29.50;;;;;;;;5055589;28;51668;-46
2022/02/25 04:56:47;;;;;;;;;31.25;26.50;;;;;;;;5042771;28;51061;-51
2022/02/25 04:59:46;;;;;;;;;36.25;27.00;;;;;;;;5046119;28;51134;-48
2022/02/25 05:02:31;;;;;;;;;32.75;26.75;;;;;;;;5041190;28;51081;-50
2022/02/25 05:05:15;;;;;;;;;29.75;25.75;;;;;;;;5041942;28;51622;-47
2022/02/25 05:08:04;;;;;;;;;32.50;27.50;;;;;;;;5041748;28;51113;-49
2022/02/25 05:10:51;;;;;;;;;30.25;27.50;;;;;;;;5042166;28;51032;-49
2022/02/25 05:14:02;;;;;;;;;28.50;25.00;;;;;;;;5043707;28;51227;-51
2022/02/25 05:20:23;;;;;;;;;49.25;35.00;;;;;;;;5053962;28;51154;-49
2022/02/25 05:23:07;;;;;;;;;40.75;30.25;;;;;;;;5041929;28;51172;-50
2022/02/25 05:25:57;;;;;;;;;56.25;34.00;;;;;;;;5056190;28;51122;-48
2022/02/25 05:28:42;;;;;;;;;28.75;24.75;;;;;;;;5055550;28;51543;-49
2022/02/25 05:31:29;;;;;;;;;37.25;28.75;;;;;;;;5044873;28;51042;-51
2022/02/25 05:34:14;;;;;;;;;40.50;30.00;;;;;;;;5042891;28;51142;-47
2022/02/25 05:36:59;;;;;;;;;43.00;30.00;;;;;;;;5044584;28;51155;-49
2022/02/25 05:39:44;;;;;;;;;32.75;27.25;;;;;;;;5045358;28;52114;-49
2022/02/25 05:42:36;;;;;;;;;44.50;31.00;;;;;;;;5042815;28;51129;-49
2022/02/25 05:45:26;;;;;;;;;35.25;25.50;;;;;;;;5046532;28;51140;-46
2022/02/25 05:48:12;;;;;;;;;40.50;30.50;;;;;;;;5055251;28;51300;-51
2022/02/25 05:50:58;;;;;;;;;36.50;30.50;;;;;;;;5051573;28;51194;-47
2022/02/25 05:53:44;;;;;;;;;37.75;29.00;;;;;;;;5048184;28;51334;-48
2022/02/25 05:56:28;;;;;;;;;35.75;30.25;;;;;;;;5051056;28;51078;-47
2022/02/25 05:59:14;;;;;;;;;41.00;31.50;;;;;;;;5054262;28;51127;-47
2022/02/25 06:01:59;;;;;;;;;43.00;33.00;;;;;;;;5041106;28;51195;-48
2022/02/25 06:04:56;;;;;;;;;40.75;30.50;;;;;;;;5037678;28;51454;-52
2022/02/25 06:07:42;;;;;;;;;33.00;31.25;;;;;;;;5039302;28;51152;-47
2022/02/25 06:10:29;;;;;;;;;40.75;32.50;;;;;;;;5045367;28;51210;-48
2022/02/25 06:13:13;;;;;;;;;44.50;32.50;;;;;;;;5050226;28;51083;-48
2022/02/25 06:16:00;;;;;;;;;44.75;35.00;;;;;;;;5041014;28;51151;-45
2022/02/25 06:18:44;;;;;;;;;50.25;33.50;;;;;;;;5040673;28;51456;-49
2022/02/25 06:21:30;;;;;;;;;46.75;35.50;;;;;;;;5041345;28;51200;-49
2022/02/25 06:24:25;;;;;;;;;43.75;32.50;;;;;;;;5043750;28;51213;-47
2022/02/25 06:27:09;;;;;;;;;44.75;35.00;;;;;;;;5042423;28;51132;-46
2022/02/25 06:29:54;;;;;;;;;50.50;41.50;;;;;;;;5042037;28;51434;-45
2022/02/25 06:32:39;;;;;;;;;46.75;35.00;;;;;;;;5043564;28;51170;-53
2022/02/25 06:35:26;;;;;;;;;48.50;36.25;;;;;;;;5041243;28;51068;-50
2022/02/25 06:38:18;;;;;;;;;50.25;40.25;;;;;;;;5048541;28;51246;-54
2022/02/25 06:41:04;;;;;;;;;45.75;36.00;;;;;;;;5041859;28;51178;-50
2022/02/25 06:43:51;;;;;;;;;51.50;41.75;;;;;;;;5038835;28;51137;-52
2022/02/25 06:46:37;;;;;;;;;57.75;44.25;;;;;;;;5039816;28;51563;-51
2022/02/25 06:49:22;;;;;;;;;56.75;42.00;;;;;;;;5039371;28;51444;-48
2022/02/25 06:52:06;;;;;;;;;54.25;41.25;;;;;;;;5039905;28;51444;-51
2022/02/25 06:54:57;;;;;;;;;52.00;38.75;;;;;;;;5052201;28;51117;-50
2022/02/25 06:57:43;;;;;;;;;66.25;46.50;;;;;;;;5059301;28;51463;-50
2022/02/25 07:00:59;;;;;;;;;58.50;44.75;;;;;;;;5042230;28;51091;-52
2022/02/25 07:03:44;;;;;;;;;63.00;45.00;;;;;;;;5045287;28;51420;-48
2022/02/25 07:06:28;;;;;;;;;58.00;44.25;;;;;;;;5041721;28;51181;-51
2022/02/25 07:09:17;;;;;;;;;54.50;42.50;;;;;;;;5044634;28;51244;-50
2022/02/25 07:12:04;;;;;;;;;55.75;42.50;;;;;;;;5039680;28;51632;-51
2022/02/25 07:15:10;;;;;;;;;57.00;42.75;;;;;;;;5059243;28;51117;-48
2022/02/25 07:17:58;;;;;;;;;52.50;41.25;;;;;;;;5056502;28;51190;-53
2022/02/25 07:20:45;;;;;;;;;53.25;41.75;;;;;;;;5053691;28;51322;-52
2022/02/25 07:23:44;;;;;;;;;57.50;42.50;;;;;;;;5053379;28;52218;-50
2022/02/25 07:26:29;;;;;;;;;55.00;42.75;;;;;;;;5039169;28;51482;-52
2022/02/25 07:29:16;;;;;;;;;57.50;43.75;;;;;;;;5054954;28;52176;-52
2022/02/25 07:32:06;;;;;;;;;59.75;47.00;;;;;;;;5054835;28;51202;-52
2022/02/25 07:34:51;;;;;;;;;56.50;42.25;;;;;;;;5054957;28;51651;-49
2022/02/25 07:37:36;;;;;;;;;52.25;42.00;;;;;;;;5046665;28;51688;-50
2022/02/25 07:40:33;;;;;;;;;61.75;45.25;;;;;;;;5051666;28;51202;-49
2022/02/25 07:43:19;;;;;;;;;56.00;41.00;;;;;;;;5049111;28;51033;-52
2022/02/25 07:46:09;;;;;;;;;43.00;34.75;;;;;;;;5042873;28;51089;-50
2022/02/25 07:48:59;;;;;;;;;44.00;34.00;;;;;;;;5039490;28;51393;-52
2022/02/25 07:51:45;;;;;;;;;38.50;30.25;;;;;;;;5038360;28;51231;-54
2022/02/25 07:54:31;;;;;;;;;36.25;28.50;;;;;;;;5038298;28;51360;-48
2022/02/25 07:57:15;;;;;;;;;27.25;24.75;;;;;;;;5045341;28;50947;-53
2022/02/25 08:00:04;;;;;;;;;21.25;19.25;;;;;;;;5056264;28;51123;-54
2022/02/25 08:02:49;;;;;;;;;19.00;15.50;;;;;;;;5050171;28;51543;-51
2022/02/25 08:05:35;;;;;;;;;20.25;17.75;;;;;;;;5044850;28;51127;-49
2022/02/25 08:08:20;;;;;;;;;27.50;21.25;;;;;;;;5043413;28;51191;-51
2022/02/25 08:11:06;;;;;;;;;27.50;23.75;;;;;;;;5056330;28;51091;-54
2022/02/25 08:13:53;;;;;;;;;35.75;27.00;;;;;;;;5061835;28;51105;-50
2022/02/25 08:16:38;;;;;;;;;28.75;18.75;;;;;;;;5050351;28;52085;-51
2022/02/25 08:19:23;;;;;;;;;25.00;19.75;;;;;;;;5053818;28;51202;-51
2022/02/25 08:22:08;;;;;;;;;26.50;22.75;;;;;;;;5045432;28;51109;-52
2022/02/25 08:24:53;;;;;;;;;28.25;22.50;;;;;;;;5044470;28;51036;-48
2022/02/25 08:27:38;;;;;;;;;30.75;18.25;;;;;;;;5053467;28;51494;-54
2022/02/25 08:30:33;;;;;;;;;21.75;16.75;;;;;;;;5046610;28;51143;-53
2022/02/25 08:33:18;;;;;;;;;26.75;23.00;;;;;;;;5060900;28;51035;-50
2022/02/25 08:36:07;;;;;;;;;27.50;20.00;;;;;;;;5044000;28;51160;-52
2022/02/25 08:38:53;;;;;;;;;26.50;21.25;;;;;;;;5047629;28;51072;-51
2022/02/25 08:41:42;;;;;;;;;29.00;20.50;;;;;;;;5048140;28;51321;-51
2022/02/25 08:44:46;;;;;;;;;26.25;17.25;;;;;;;;5061663;28;51277;-50
2022/02/25 08:47:31;;;;;;;;;25.00;20.00;;;;;;;;5045031;28;51142;-50
2022/02/25 08:50:27;;;;;;;;;26.75;19.25;;;;;;;;5044514;28;51348;-50
2022/02/25 08:53:12;;;;;;;;;24.75;20.25;;;;;;;;5044386;28;51203;-53
2022/02/25 08:55:57;;;;;;;;;20.75;17.00;;;;;;;;5064074;28;51082;-50
2022/02/25 08:59:01;;;;;;;;;23.75;19.25;;;;;;;;5064647;28;51169;-53
2022/02/25 09:01:45;;;;;;;;;18.50;14.50;;;;;;;;5064419;28;51593;-48
2022/02/25 09:04:29;;;;;;;;;24.25;17.75;;;;;;;;5063990;28;51116;-50
2022/02/25 09:07:14;;;;;;;;;20.25;17.75;;;;;;;;5057204;28;51581;-50
2022/02/25 09:09:59;;;;;;;;;27.00;20.50;;;;;;;;5059035;28;51167;-46
2022/02/25 09:13:12;;;;;;;;;27.75;22.50;;;;;;;;5041118;28;51112;-49
2022/02/25 09:15:57;;;;;;;;;29.50;24.50;;;;;;;;5060139;28;51107;-47
2022/02/25 09:18:45;;;;;;;;;28.75;19.50;;;;;;;;5060923;28;51410;-47
2022/02/25 09:21:29;;;;;;;;;24.00;20.00;;;;;;;;5045785;28;51177;-50
2022/02/25 09:24:14;;;;;;;;;23.00;18.25;;;;;;;;5055748;28;51182;-48
2022/02/25 09:26:58;;;;;;;;;23.00;20.25;;;;;;;;5040575;28;51398;-48
2022/02/25 09:29:46;;;;;;;;;22.25;20.50;;;;;;;;5047176;28;51020;-49
2022/02/25 09:32:30;;;;;;;;;22.00;20.50;;;;;;;;5040263;28;51018;-51
2022/02/25 09:35:15;;;;;;;;;21.00;17.25;;;;;;;;5060028;28;51174;-51
2022/02/25 09:37:59;;;;;;;;;25.25;22.00;;;;;;;;5032344;28;51105;-48
2022/02/25 09:40:44;;;;;;;;;23.50;17.75;;;;;;;;5057148;28;51183;-47
2022/02/25 09:43:29;;;;;;;;;22.25;21.00;;;;;;;;5060302;28;51447;-46
2022/02/25 09:46:13;;;;;;;;;26.25;22.75;;;;;;;;5058249;28;51044;-47
2022/02/25 09:48:59;;;;;;;;;24.00;17.00;;;;;;;;5060437;28;51123;-46
2022/02/25 09:51:46;;;;;;;;;24.50;19.25;;;;;;;;5030198;28;51130;-46
2022/02/25 09:54:30;;;;;;;;;26.25;19.75;;;;;;;;5041775;28;51220;-46
2022/02/25 09:57:14;;;;;;;;;22.00;18.50;;;;;;;;5052126;28;51497;-49
2022/02/25 10:00:00;;;;;;;;;29.00;20.00;;;;;;;;5055137;28;51503;-44
2022/02/25 10:02:46;;;;;;;;;22.25;17.00;;;;;;;;5060597;28;51400;-46
2022/02/25 10:06:04;;;;;;;;;21.50;19.25;;;;;;;;5055874;28;51147;-50
2022/02/25 10:09:24;;;;;;;;;23.00;16.50;;;;;;;;5057604;28;52033;-46
2022/02/25 10:12:09;;;;;;;;;23.25;15.25;;;;;;;;5050503;28;51159;-49
2022/02/25 10:14:54;;;;;;;;;21.50;17.00;;;;;;;;5040638;28;51107;-48
2022/02/25 10:17:59;;;;;;;;;27.75;19.00;;;;;;;;5040021;28;51010;-48
2022/02/25 10:20:46;;;;;;;;;21.00;19.25;;;;;;;;5039956;28;51104;-50
2022/02/25 10:23:33;;;;;;;;;24.25;17.25;;;;;;;;5040191;28;51730;-50
2022/02/25 10:26:19;;;;;;;;;24.50;19.25;;;;;;;;5039551;28;51155;-51
2022/02/25 10:29:17;;;;;;;;;22.75;17.50;;;;;;;;5040288;28;51119;-48
2022/02/25 10:32:05;;;;;;;;;25.75;17.25;;;;;;;;5039456;28;51248;-49
2022/02/25 10:34:50;;;;;;;;;24.00;19.00;;;;;;;;5040939;28;51525;-48
2022/02/25 10:37:54;;;;;;;;;24.25;18.25;;;;;;;;5047207;28;51187;-47
2022/02/25 10:40:43;;;;;;;;;23.75;18.75;;;;;;;;5042553;28;51068;-50
2022/02/25 10:43:28;;;;;;;;;19.25;16.50;;;;;;;;5055002;28;51211;-47
2022/02/25 10:46:36;;;;;;;;;24.00;16.75;;;;;;;;5049406;28;51219;-49
2022/02/25 10:49:26;;;;;;;;;21.75;16.25;;;;;;;;5039838;28;51349;-45
2022/02/25 10:52:21;;;;;;;;;21.50;17.75;;;;;;;;5039331;28;51182;-47
2022/02/25 10:55:11;;;;;;;;;25.00;19.50;;;;;;;;5059092;28;51193;-50
2022/02/25 10:57:56;;;;;;;;;23.50;17.50;;;;;;;;5058663;28;51147;-48
2022/02/25 11:00:46;;;;;;;;;20.25;18.25;;;;;;;;5056889;28;51150;-46
2022/02/25 11:03:34;;;;;;;;;21.75;16.50;;;;;;;;5059419;28;51130;-49
2022/02/25 11:06:19;;;;;;;;;19.25;16.75;;;;;;;;5043981;28;51453;-50
2022/02/25 11:09:04;;;;;;;;;21.25;18.25;;;;;;;;5039052;28;51124;-49
2022/02/25 11:11:52;;;;;;;;;26.00;15.25;;;;;;;;5038889;28;51163;-49
2022/02/25 11:14:38;;;;;;;;;20.50;16.00;;;;;;;;5038826;28;51433;-49
2022/02/25 11:17:25;;;;;;;;;18.50;17.25;;;;;;;;5038775;28;51040;-49
2022/02/25 11:20:10;;;;;;;;;20.00;15.25;;;;;;;;5039025;28;51178;-47
2022/02/25 11:22:57;;;;;;;;;17.50;16.75;;;;;;;;5039156;28;51072;-51
2022/02/25 11:25:42;;;;;;;;;23.75;20.50;;;;;;;;5039114;28;51140;-52
2022/02/25 11:28:27;;;;;;;;;21.25;17.00;;;;;;;;5039281;28;51097;-50
2022/02/25 11:31:31;;;;;;;;;19.25;15.50;;;;;;;;5038645;28;51217;-48
2022/02/25 11:34:24;;;;;;;;;20.75;17.00;;;;;;;;5039294;28;50947;-46
2022/02/25 11:37:09;;;;;;;;;20.75;16.75;;;;;;;;5048263;28;51141;-46
2022/02/25 11:39:58;;;;;;;;;14.25;13.00;;;;;;;;5042248;28;51503;-46
2022/02/25 11:42:47;;;;;;;;;13.75;13.50;;;;;;;;5048067;28;51383;-50
2022/02/25 11:45:49;;;;;;;;;19.50;15.75;;;;;;;;5038296;28;51092;-48
2022/02/25 11:48:43;;;;;;;;;16.50;14.50;;;;;;;;5038560;28;51158;-50
2022/02/25 11:51:33;;;;;;;;;20.25;13.75;;;;;;;;5059328;28;51555;-50
2022/02/25 11:54:21;;;;;;;;;21.25;15.25;;;;;;;;5058616;28;51289;-49
2022/02/25 11:57:07;;;;;;;;;20.50;16.00;;;;;;;;5059105;28;51564;-49
2022/02/25 11:59:55;;;;;;;;;16.75;13.50;;;;;;;;5058377;28;51175;-46
2022/02/25 12:02:59;;;;;;;;;20.50;16.00;;;;;;;;5058899;28;51179;-49
2022/02/25 12:05:45;;;;;;;;;22.75;16.25;;;;;;;;5043488;28;51151;-49
2022/02/25 12:08:32;;;;;;;;;19.00;13.50;;;;;;;;5043687;28;51025;-52
2022/02/25 12:11:48;;;;;;;;;16.50;13.75;;;;;;;;5058199;28;51027;-47
2022/02/25 12:14:55;;;;;;;;;21.75;17.75;;;;;;;;5040426;28;51546;-51
2022/02/25 12:17:58;;;;;;;;;20.00;15.75;;;;;;;;5040574;28;51397;-46
2022/02/25 12:21:06;;;;;;;;;21.25;15.00;;;;;;;;5037732;28;51540;-49
2022/02/25 12:23:51;;;;;;;;;20.00;16.25;;;;;;;;5038737;28;51216;-46
2022/02/25 12:26:38;;;;;;;;;23.75;15.25;;;;;;;;5055599;28;51488;-46
2022/02/25 12:29:23;;;;;;;;;18.25;14.50;;;;;;;;5043193;28;51123;-51
2022/02/25 12:32:07;;;;;;;;;22.75;16.25;;;;;;;;5058305;28;51130;-45
2022/02/25 12:35:21;;;;;;;;;18.00;14.25;;;;;;;;5044411;28;51199;-50
2022/02/25 12:38:06;;;;;;;;;21.50;17.25;;;;;;;;5031969;28;51469;-51
2022/02/25 12:40:53;;;;;;;;;24.00;15.75;;;;;;;;5037523;28;51193;-46
2022/02/25 12:43:45;;;;;;;;;20.00;16.00;;;;;;;;5060165;28;51537;-48
2022/02/25 12:46:31;;;;;;;;;17.00;13.00;;;;;;;;5061612;28;51119;-50
2022/02/25 12:49:17;;;;;;;;;22.25;19.75;;;;;;;;5061715;28;51171;-49
2022/02/25 12:52:06;;;;;;;;;19.25;13.00;;;;;;;;5041554;28;51555;-46
2022/02/25 12:54:55;;;;;;;;;23.50;18.25;;;;;;;;5046282;28;51111;-50
2022/02/25 12:57:40;;;;;;;;;26.50;20.50;;;;;;;;5061697;28;51646;-50
2022/02/25 13:00:25;;;;;;;;;28.25;18.50;;;;;;;;5041535;28;51436;-49
2022/02/25 13:03:12;;;;;;;;;22.25;17.00;;;;;;;;5044574;28;51556;-51
2022/02/25 13:05:58;;;;;;;;;22.75;17.50;;;;;;;;5042092;28;51066;-50
2022/02/25 13:08:46;;;;;;;;;21.00;16.75;;;;;;;;5053360;28;52013;-53
2022/02/25 13:11:32;;;;;;;;;26.00;21.00;;;;;;;;5040766;28;51174;-49
2022/02/25 13:14:28;;;;;;;;;21.75;16.00;;;;;;;;5041480;28;51441;-50
2022/02/25 13:17:27;;;;;;;;;24.75;23.00;;;;;;;;5041363;28;51155;-52
2022/02/25 13:20:14;;;;;;;;;19.50;14.00;;;;;;;;5054808;28;51118;-50
2022/02/25 13:23:10;;;;;;;;;25.25;22.75;;;;;;;;5061190;28;51143;-49
2022/02/25 13:26:01;;;;;;;;;22.50;17.50;;;;;;;;5061412;28;51047;-48
2022/02/25 13:29:03;;;;;;;;;19.50;14.75;;;;;;;;5056614;28;51533;-49
2022/02/25 13:31:54;;;;;;;;;21.25;15.00;;;;;;;;5043087;28;51126;-52
2022/02/25 13:34:38;;;;;;;;;21.25;14.50;;;;;;;;5040440;28;51132;-50
2022/02/25 13:37:25;;;;;;;;;20.25;17.50;;;;;;;;5040472;28;51062;-50
2022/02/25 13:40:36;;;;;;;;;17.00;14.00;;;;;;;;5040747;28;51230;-51
2022/02/25 13:43:40;;;;;;;;;20.50;15.25;;;;;;;;5040059;28;51660;-48
2022/02/25 13:46:36;;;;;;;;;19.25;16.75;;;;;;;;5022427;28;51182;-51
2022/02/25 13:52:30;;;;;;;;;16.00;14.00;;;;;;;;5040274;28;51234;-47
2022/02/25 13:55:17;;;;;;;;;22.00;19.75;;;;;;;;5039662;28;51109;-46
2022/02/25 13:58:02;;;;;;;;;19.75;18.75;;;;;;;;5040508;28;51162;-51
2022/02/25 14:00:51;;;;;;;;;19.50;15.75;;;;;;;;5040718;28;51100;-50
2022/02/25 14:03:52;;;;;;;;;27.00;18.25;;;;;;;;5056813;28;51211;-48
2022/02/25 14:06:42;;;;;;;;;27.25;19.00;;;;;;;;5044775;28;51284;-46
2022/02/25 14:09:29;;;;;;;;;25.00;18.00;;;;;;;;5044753;28;51460;-47
2022/02/25 14:12:23;;;;;;;;;23.50;14.50;;;;;;;;5044084;28;51139;-49
2022/02/25 14:15:12;;;;;;;;;19.25;14.00;;;;;;;;5059594;28;51261;-48
2022/02/25 14:18:01;;;;;;;;;19.00;16.25;;;;;;;;5059959;28;51116;-47
2022/02/25 14:20:47;;;;;;;;;23.50;16.50;;;;;;;;5059144;28;51152;-46
2022/02/25 14:23:35;;;;;;;;;21.25;15.25;;;;;;;;5059515;28;51080;-48
2022/02/25 14:26:41;;;;;;;;;22.75;17.25;;;;;;;;5059844;28;51475;-49
2022/02/25 14:29:28;;;;;;;;;25.75;17.75;;;;;;;;5059743;28;51064;-46
2022/02/25 14:32:15;;;;;;;;;21.00;13.00;;;;;;;;5040501;28;53081;-52
2022/02/25 14:35:03;;;;;;;;;26.50;16.00;;;;;;;;5038998;28;51085;-51
2022/02/25 14:37:54;;;;;;;;;19.25;16.75;;;;;;;;5039195;28;51152;-50
2022/02/25 14:40:51;;;;;;;;;21.75;18.25;;;;;;;;5038802;28;51180;-48
2022/02/25 14:43:45;;;;;;;;;23.50;17.50;;;;;;;;5039870;28;51132;-47
2022/02/25 14:46:30;;;;;;;;;22.25;20.00;;;;;;;;5056940;28;51650;-46
2022/02/25 14:49:15;;;;;;;;;26.00;17.75;;;;;;;;5059396;28;51043;-49
2022/02/25 14:52:00;;;;;;;;;23.00;16.00;;;;;;;;5059126;28;51413;-47
2022/02/25 14:54:55;;;;;;;;;21.75;18.75;;;;;;;;5053107;28;51270;-48
2022/02/25 14:57:41;;;;;;;;;22.50;19.00;;;;;;;;5048767;28;51177;-47
2022/02/25 15:00:37;;;;;;;;;23.50;17.75;;;;;;;;5039038;28;51316;-49
2022/02/25 15:03:23;;;;;;;;;19.50;16.25;;;;;;;;5058842;28;51091;-47
2022/02/25 15:06:07;;;;;;;;;25.25;18.50;;;;;;;;5057492;28;51119;-49
2022/02/25 15:08:52;;;;;;;;;21.75;15.75;;;;;;;;5047066;28;51109;-50
2022/02/25 15:11:38;;;;;;;;;24.50;20.75;;;;;;;;5038518;28;51001;-46
2022/02/25 15:14:23;;;;;;;;;22.50;13.00;;;;;;;;5039440;28;51104;-45
2022/02/25 15:17:08;;;;;;;;;20.75;17.00;;;;;;;;5037249;28;51522;-45
2022/02/25 15:19:55;;;;;;;;;23.25;15.00;;;;;;;;5038659;28;51122;-47
2022/02/25 15:22:42;;;;;;;;;23.75;15.50;;;;;;;;5038820;28;51075;-48
2022/02/25 15:25:46;;;;;;;;;19.00;17.75;;;;;;;;5037659;28;51423;-47
2022/02/25 15:28:34;;;;;;;;;21.00;17.25;;;;;;;;5055467;28;51081;-49
2022/02/25 15:31:31;;;;;;;;;21.75;18.50;;;;;;;;5038779;28;51145;-49
2022/02/25 15:34:16;;;;;;;;;25.75;16.50;;;;;;;;5039096;28;51113;-50
2022/02/25 15:37:08;;;;;;;;;17.50;15.75;;;;;;;;5042780;28;52402;-47
2022/02/25 15:39:56;;;;;;;;;31.00;22.50;;;;;;;;5052928;28;51071;-49
2022/02/25 15:42:46;;;;;;;;;22.75;18.50;;;;;;;;5038472;28;51579;-51
2022/02/25 15:45:31;;;;;;;;;22.25;16.75;;;;;;;;5038166;28;51134;-50
2022/02/25 15:48:15;;;;;;;;;27.75;19.50;;;;;;;;5057959;28;51143;-47
2022/02/25 15:51:09;;;;;;;;;19.00;17.25;;;;;;;;5058320;28;51566;-50
2022/02/25 15:53:55;;;;;;;;;22.75;19.00;;;;;;;;5038484;28;51089;-49
2022/02/25 15:56:41;;;;;;;;;17.50;12.75;;;;;;;;5040200;28;51179;-53
2022/02/25 15:59:33;;;;;;;;;18.50;17.25;;;;;;;;5042394;28;51143;-48
2022/02/25 16:02:20;;;;;;;;;16.75;16.50;;;;;;;;5038228;28;51213;-48
2022/02/25 16:05:05;;;;;;;;;23.00;18.00;;;;;;;;5040761;28;51122;-50
2022/02/25 16:08:01;;;;;;;;;28.25;17.75;;;;;;;;5058503;28;51497;-46
2022/02/25 16:10:46;;;;;;;;;20.75;15.75;;;;;;;;5044056;28;51070;-46
2022/02/25 16:13:31;;;;;;;;;18.25;16.00;;;;;;;;5038840;28;51202;-48
2022/02/25 16:16:16;;;;;;;;;26.25;18.50;;;;;;;;5038607;28;51418;-49
2022/02/25 16:19:07;;;;;;;;;24.75;19.25;;;;;;;;5042094;28;51205;-46
2022/02/25 16:21:53;;;;;;;;;23.75;17.00;;;;;;;;5043638;28;51133;-48
2022/02/25 16:24:39;;;;;;;;;24.00;15.75;;;;;;;;5059171;28;51071;-49
2022/02/25 16:27:26;;;;;;;;;23.00;18.25;;;;;;;;5042241;28;51325;-49
2022/02/25 16:30:12;;;;;;;;;23.00;17.75;;;;;;;;5042510;28;51101;-49